首页
METAR-TAF:

METAR-TAF

机场 :

Tabarka, 突尼斯

纬度: 36-57N, 经度: 008-45E, 海拔: 20米

当前天气观测

该预报发布于1小时和0分钟前的07:00 UTC
风速2节,风向多变
温度 12°C
湿度 100%
气压 1009 hPa
能见度10公里或以上
散云层高于2000英尺
散云层高于3000英尺

METAR: DTKA 030700Z VRB02KT 9999 SCT020 SCT030 12/12 Q1009 NOSIG

时间: 09:00 (08:00 UTC)

预报

该预报发布于2小时和0分钟前的06:00 UTC
预报有效从03日的 07点(UTC)到 03日的 16点(UTC)
风速5节,风向西转西南
能见度10公里或以上
散云层高于2000英尺
散云层高于3000英尺
短暂存在
从 03日的 07点(UTC)到 03日的 16点(UTC)
能見度: 4000
少量云层高于2600英尺, 积雨云.
小阵雨

TAF: DTKA 030600Z 0307/0316 24005KT 9999 SCT020 SCT030 TEMPO 0307/0316 4000 -SHRA FEW026CB

超过4000个机场的气象观测和天气预报(METAR&TAF报告)。

可查询的气象台以黄色和红色小点在地图上表示。

将鼠标移到小点上方,可查看气象台名称。

然后点击查看天气观测和预报。

如需切换地图:点击带黑十字的绿色按钮放大地图;点击带横线的绿色按钮缩小地图;或者点击绿色箭头查看邻近地区的地图。


METAR-TAF: